sensor_id;sensor_type;location;lat;lon;timestamp;P1;durP1;ratioP1;P2;durP2;ratioP2
16512;SDS011;8369;48.030;11.598;2023-05-07T00:00:21;3.50;;;2.90;;
16512;SDS011;8369;48.030;11.598;2023-05-07T00:02:48;3.67;;;2.70;;
16512;SDS011;8369;48.030;11.598;2023-05-07T00:05:14;3.07;;;2.83;;
16512;SDS011;8369;48.030;11.598;2023-05-07T00:07:41;4.40;;;2.90;;
16512;SDS011;8369;48.030;11.598;2023-05-07T00:10:07;5.70;;;3.33;;
16512;SDS011;8369;48.030;11.598;2023-05-07T00:12:33;4.27;;;2.90;;
16512;SDS011;8369;48.030;11.598;2023-05-07T00:15:00;3.07;;;2.73;;
16512;SDS011;8369;48.030;11.598;2023-05-07T00:17:29;2.90;;;2.70;;
16512;SDS011;8369;48.030;11.598;2023-05-07T00:19:55;3.00;;;2.70;;
16512;SDS011;8369;48.030;11.598;2023-05-07T00:22:22;3.27;;;2.87;;
16512;SDS011;8369;48.030;11.598;2023-05-07T00:24:48;3.30;;;3.00;;
16512;SDS011;8369;48.030;11.598;2023-05-07T00:27:15;2.87;;;2.63;;
16512;SDS011;8369;48.030;11.598;2023-05-07T00:29:41;3.07;;;2.80;;
16512;SDS011;8369;48.030;11.598;2023-05-07T00:32:10;3.80;;;3.13;;
16512;SDS011;8369;48.030;11.598;2023-05-07T00:34:36;6.30;;;2.70;;
16512;SDS011;8369;48.030;11.598;2023-05-07T00:37:02;3.67;;;3.17;;
16512;SDS011;8369;48.030;11.598;2023-05-07T00:39:28;4.10;;;2.93;;
16512;SDS011;8369;48.030;11.598;2023-05-07T00:41:54;3.67;;;2.70;;
16512;SDS011;8369;48.030;11.598;2023-05-07T00:44:19;3.67;;;2.80;;
16512;SDS011;8369;48.030;11.598;2023-05-07T00:46:45;5.50;;;2.77;;
16512;SDS011;8369;48.030;11.598;2023-05-07T00:49:14;4.23;;;3.03;;
16512;SDS011;8369;48.030;11.598;2023-05-07T00:51:42;2.80;;;2.60;;
16512;SDS011;8369;48.030;11.598;2023-05-07T00:54:08;4.60;;;2.93;;
16512;SDS011;8369;48.030;11.598;2023-05-07T00:56:34;4.90;;;2.90;;
16512;SDS011;8369;48.030;11.598;2023-05-07T00:59:01;2.90;;;2.60;;
16512;SDS011;8369;48.030;11.598;2023-05-07T01:01:28;7.87;;;2.93;;
16512;SDS011;8369;48.030;11.598;2023-05-07T01:03:54;3.40;;;2.80;;
16512;SDS011;8369;48.030;11.598;2023-05-07T01:06:20;3.70;;;2.60;;
16512;SDS011;8369;48.030;11.598;2023-05-07T01:08:47;3.43;;;2.63;;
16512;SDS011;8369;48.030;11.598;2023-05-07T01:11:15;2.80;;;2.40;;
16512;SDS011;8369;48.030;11.598;2023-05-07T01:13:44;3.17;;;2.70;;
16512;SDS011;8369;48.030;11.598;2023-05-07T01:16:10;3.23;;;2.83;;
16512;SDS011;8369;48.030;11.598;2023-05-07T01:18:36;3.80;;;2.73;;
16512;SDS011;8369;48.030;11.598;2023-05-07T01:21:03;3.00;;;2.70;;
16512;SDS011;8369;48.030;11.598;2023-05-07T01:23:30;2.90;;;2.60;;
16512;SDS011;8369;48.030;11.598;2023-05-07T01:25:56;3.70;;;2.90;;
16512;SDS011;8369;48.030;11.598;2023-05-07T01:28:21;3.20;;;2.93;;
16512;SDS011;8369;48.030;11.598;2023-05-07T01:30:49;3.07;;;2.77;;
16512;SDS011;8369;48.030;11.598;2023-05-07T01:33:19;3.10;;;2.70;;
16512;SDS011;8369;48.030;11.598;2023-05-07T01:35:50;3.20;;;2.90;;
16512;SDS011;8369;48.030;11.598;2023-05-07T01:38:18;5.93;;;3.17;;
16512;SDS011;8369;48.030;11.598;2023-05-07T01:40:47;4.00;;;2.93;;
16512;SDS011;8369;48.030;11.598;2023-05-07T01:43:19;5.73;;;3.30;;
16512;SDS011;8369;48.030;11.598;2023-05-07T01:45:45;4.00;;;2.43;;
16512;SDS011;8369;48.030;11.598;2023-05-07T01:48:14;9.97;;;3.23;;
16512;SDS011;8369;48.030;11.598;2023-05-07T01:50:43;5.13;;;2.70;;
16512;SDS011;8369;48.030;11.598;2023-05-07T01:53:09;4.77;;;2.90;;
16512;SDS011;8369;48.030;11.598;2023-05-07T01:55:35;2.73;;;2.43;;
16512;SDS011;8369;48.030;11.598;2023-05-07T01:58:02;5.97;;;3.10;;
16512;SDS011;8369;48.030;11.598;2023-05-07T02:00:28;4.10;;;2.83;;
16512;SDS011;8369;48.030;11.598;2023-05-07T02:02:55;5.53;;;2.40;;
16512;SDS011;8369;48.030;11.598;2023-05-07T02:05:23;3.60;;;2.50;;
16512;SDS011;8369;48.030;11.598;2023-05-07T02:07:49;2.73;;;2.53;;
16512;SDS011;8369;48.030;11.598;2023-05-07T02:10:15;6.33;;;2.83;;
16512;SDS011;8369;48.030;11.598;2023-05-07T02:12:41;3.23;;;2.87;;
16512;SDS011;8369;48.030;11.598;2023-05-07T02:15:07;8.73;;;2.97;;
16512;SDS011;8369;48.030;11.598;2023-05-07T02:17:34;2.60;;;2.40;;
16512;SDS011;8369;48.030;11.598;2023-05-07T02:20:00;4.17;;;2.97;;
16512;SDS011;8369;48.030;11.598;2023-05-07T02:22:27;5.03;;;2.97;;
16512;SDS011;8369;48.030;11.598;2023-05-07T02:24:53;3.20;;;2.87;;
16512;SDS011;8369;48.030;11.598;2023-05-07T02:27:19;2.67;;;2.47;;
16512;SDS011;8369;48.030;11.598;2023-05-07T02:29:45;8.17;;;2.90;;
16512;SDS011;8369;48.030;11.598;2023-05-07T02:32:11;4.70;;;2.80;;
16512;SDS011;8369;48.030;11.598;2023-05-07T02:34:37;5.43;;;2.80;;
16512;SDS011;8369;48.030;11.598;2023-05-07T02:37:03;3.20;;;2.90;;
16512;SDS011;8369;48.030;11.598;2023-05-07T02:39:29;3.80;;;2.90;;
16512;SDS011;8369;48.030;11.598;2023-05-07T02:41:55;3.10;;;2.80;;
16512;SDS011;8369;48.030;11.598;2023-05-07T02:44:22;3.57;;;2.57;;
16512;SDS011;8369;48.030;11.598;2023-05-07T02:46:48;4.00;;;2.83;;
16512;SDS011;8369;48.030;11.598;2023-05-07T02:49:13;3.07;;;2.73;;
16512;SDS011;8369;48.030;11.598;2023-05-07T02:51:39;8.07;;;2.63;;
16512;SDS011;8369;48.030;11.598;2023-05-07T02:54:05;3.33;;;2.90;;
16512;SDS011;8369;48.030;11.598;2023-05-07T02:56:32;3.03;;;2.73;;
16512;SDS011;8369;48.030;11.598;2023-05-07T02:58:57;4.33;;;2.57;;
16512;SDS011;8369;48.030;11.598;2023-05-07T03:01:24;2.70;;;2.50;;
16512;SDS011;8369;48.030;11.598;2023-05-07T03:03:50;3.47;;;2.70;;
16512;SDS011;8369;48.030;11.598;2023-05-07T03:06:16;3.57;;;2.83;;
16512;SDS011;8369;48.030;11.598;2023-05-07T03:08:41;5.33;;;2.90;;
16512;SDS011;8369;48.030;11.598;2023-05-07T03:11:08;3.93;;;2.70;;
16512;SDS011;8369;48.030;11.598;2023-05-07T03:13:34;3.97;;;3.30;;
16512;SDS011;8369;48.030;11.598;2023-05-07T03:15:59;5.40;;;2.83;;
16512;SDS011;8369;48.030;11.598;2023-05-07T03:18:25;3.03;;;2.73;;
16512;SDS011;8369;48.030;11.598;2023-05-07T03:20:51;4.40;;;2.70;;
16512;SDS011;8369;48.030;11.598;2023-05-07T03:23:17;2.83;;;2.53;;
16512;SDS011;8369;48.030;11.598;2023-05-07T03:25:43;6.70;;;2.83;;
16512;SDS011;8369;48.030;11.598;2023-05-07T03:28:09;3.33;;;2.80;;
16512;SDS011;8369;48.030;11.598;2023-05-07T03:30:35;6.00;;;2.80;;
16512;SDS011;8369;48.030;11.598;2023-05-07T03:33:01;5.77;;;2.67;;
16512;SDS011;8369;48.030;11.598;2023-05-07T03:35:26;3.67;;;2.53;;
16512;SDS011;8369;48.030;11.598;2023-05-07T03:37:52;3.60;;;2.87;;
16512;SDS011;8369;48.030;11.598;2023-05-07T03:40:18;3.53;;;3.00;;
16512;SDS011;8369;48.030;11.598;2023-05-07T03:42:45;5.77;;;2.90;;
16512;SDS011;8369;48.030;11.598;2023-05-07T03:45:10;2.93;;;2.67;;
16512;SDS011;8369;48.030;11.598;2023-05-07T03:47:36;3.10;;;2.80;;
16512;SDS011;8369;48.030;11.598;2023-05-07T03:50:02;3.97;;;3.17;;
16512;SDS011;8369;48.030;11.598;2023-05-07T03:52:28;5.00;;;2.70;;
16512;SDS011;8369;48.030;11.598;2023-05-07T03:54:55;2.93;;;2.70;;
16512;SDS011;8369;48.030;11.598;2023-05-07T03:57:20;3.20;;;2.90;;
16512;SDS011;8369;48.030;11.598;2023-05-07T03:59:46;3.37;;;2.93;;
16512;SDS011;8369;48.030;11.598;2023-05-07T04:02:12;3.27;;;2.97;;
16512;SDS011;8369;48.030;11.598;2023-05-07T04:04:38;3.23;;;2.90;;
16512;SDS011;8369;48.030;11.598;2023-05-07T04:07:05;3.23;;;2.67;;
16512;SDS011;8369;48.030;11.598;2023-05-07T04:09:30;3.60;;;2.80;;
16512;SDS011;8369;48.030;11.598;2023-05-07T04:11:56;3.43;;;2.93;;
16512;SDS011;8369;48.030;11.598;2023-05-07T04:14:22;5.47;;;2.93;;
16512;SDS011;8369;48.030;11.598;2023-05-07T04:16:48;3.13;;;2.83;;
16512;SDS011;8369;48.030;11.598;2023-05-07T04:19:14;4.83;;;2.60;;
16512;SDS011;8369;48.030;11.598;2023-05-07T04:21:40;3.17;;;2.80;;
16512;SDS011;8369;48.030;11.598;2023-05-07T04:24:06;5.10;;;3.10;;
16512;SDS011;8369;48.030;11.598;2023-05-07T04:26:33;3.53;;;2.70;;
16512;SDS011;8369;48.030;11.598;2023-05-07T04:28:58;3.53;;;2.90;;
16512;SDS011;8369;48.030;11.598;2023-05-07T04:31:24;4.33;;;2.90;;
16512;SDS011;8369;48.030;11.598;2023-05-07T04:33:51;3.70;;;3.40;;
16512;SDS011;8369;48.030;11.598;2023-05-07T04:36:17;3.63;;;2.90;;
16512;SDS011;8369;48.030;11.598;2023-05-07T04:38:43;6.40;;;3.20;;
16512;SDS011;8369;48.030;11.598;2023-05-07T04:41:09;3.33;;;3.03;;
16512;SDS011;8369;48.030;11.598;2023-05-07T04:43:35;3.30;;;3.00;;
16512;SDS011;8369;48.030;11.598;2023-05-07T04:46:01;3.40;;;3.10;;
16512;SDS011;8369;48.030;11.598;2023-05-07T04:48:27;3.63;;;2.63;;
16512;SDS011;8369;48.030;11.598;2023-05-07T04:50:54;3.03;;;2.70;;
16512;SDS011;8369;48.030;11.598;2023-05-07T04:53:20;3.77;;;3.00;;
16512;SDS011;8369;48.030;11.598;2023-05-07T04:55:46;4.40;;;3.07;;
16512;SDS011;8369;48.030;11.598;2023-05-07T04:58:12;5.13;;;3.10;;
16512;SDS011;8369;48.030;11.598;2023-05-07T05:00:39;4.67;;;3.10;;
16512;SDS011;8369;48.030;11.598;2023-05-07T05:03:08;3.73;;;3.10;;
16512;SDS011;8369;48.030;11.598;2023-05-07T05:05:34;5.03;;;3.23;;
16512;SDS011;8369;48.030;11.598;2023-05-07T05:08:00;8.03;;;3.10;;
16512;SDS011;8369;48.030;11.598;2023-05-07T05:10:26;3.27;;;2.97;;
16512;SDS011;8369;48.030;11.598;2023-05-07T05:12:52;3.50;;;3.20;;
16512;SDS011;8369;48.030;11.598;2023-05-07T05:15:18;3.27;;;2.97;;
16512;SDS011;8369;48.030;11.598;2023-05-07T05:17:43;4.63;;;2.87;;
16512;SDS011;8369;48.030;11.598;2023-05-07T05:20:10;3.57;;;3.27;;
16512;SDS011;8369;48.030;11.598;2023-05-07T05:22:36;4.33;;;3.37;;
16512;SDS011;8369;48.030;11.598;2023-05-07T05:25:03;3.13;;;2.83;;
16512;SDS011;8369;48.030;11.598;2023-05-07T05:27:29;3.40;;;2.60;;
16512;SDS011;8369;48.030;11.598;2023-05-07T05:29:55;6.57;;;3.33;;
16512;SDS011;8369;48.030;11.598;2023-05-07T05:32:22;7.43;;;3.30;;
16512;SDS011;8369;48.030;11.598;2023-05-07T05:34:48;4.13;;;3.50;;
16512;SDS011;8369;48.030;11.598;2023-05-07T05:37:14;3.60;;;3.30;;
16512;SDS011;8369;48.030;11.598;2023-05-07T05:39:40;5.00;;;3.50;;
16512;SDS011;8369;48.030;11.598;2023-05-07T05:42:07;3.90;;;3.50;;
16512;SDS011;8369;48.030;11.598;2023-05-07T05:44:33;3.90;;;3.50;;
16512;SDS011;8369;48.030;11.598;2023-05-07T05:46:59;4.13;;;3.37;;
16512;SDS011;8369;48.030;11.598;2023-05-07T05:49:25;5.20;;;2.90;;
16512;SDS011;8369;48.030;11.598;2023-05-07T05:51:51;4.20;;;3.20;;
16512;SDS011;8369;48.030;11.598;2023-05-07T05:54:20;3.70;;;3.20;;
16512;SDS011;8369;48.030;11.598;2023-05-07T05:56:46;3.63;;;3.33;;
16512;SDS011;8369;48.030;11.598;2023-05-07T05:59:13;3.87;;;3.37;;
16512;SDS011;8369;48.030;11.598;2023-05-07T06:01:38;3.43;;;3.00;;
16512;SDS011;8369;48.030;11.598;2023-05-07T06:04:06;3.00;;;2.70;;
16512;SDS011;8369;48.030;11.598;2023-05-07T06:06:32;5.77;;;2.90;;
16512;SDS011;8369;48.030;11.598;2023-05-07T06:08:57;4.03;;;3.63;;
16512;SDS011;8369;48.030;11.598;2023-05-07T06:11:23;4.40;;;3.60;;
16512;SDS011;8369;48.030;11.598;2023-05-07T06:13:51;4.37;;;3.20;;
16512;SDS011;8369;48.030;11.598;2023-05-07T06:16:17;5.63;;;3.10;;
16512;SDS011;8369;48.030;11.598;2023-05-07T06:18:44;3.77;;;3.40;;
16512;SDS011;8369;48.030;11.598;2023-05-07T06:21:13;5.50;;;3.50;;
16512;SDS011;8369;48.030;11.598;2023-05-07T06:23:40;3.47;;;3.17;;
16512;SDS011;8369;48.030;11.598;2023-05-07T06:26:06;3.53;;;3.23;;
16512;SDS011;8369;48.030;11.598;2023-05-07T06:28:33;5.47;;;3.07;;
16512;SDS011;8369;48.030;11.598;2023-05-07T06:31:15;3.67;;;3.00;;
16512;SDS011;8369;48.030;11.598;2023-05-07T06:33:45;3.30;;;3.00;;
16512;SDS011;8369;48.030;11.598;2023-05-07T06:36:12;4.67;;;3.17;;
16512;SDS011;8369;48.030;11.598;2023-05-07T06:38:39;3.47;;;3.00;;
16512;SDS011;8369;48.030;11.598;2023-05-07T06:41:08;3.87;;;3.40;;
16512;SDS011;8369;48.030;11.598;2023-05-07T06:43:34;3.20;;;2.90;;
16512;SDS011;8369;48.030;11.598;2023-05-07T06:46:01;4.37;;;2.90;;
16512;SDS011;8369;48.030;11.598;2023-05-07T06:48:27;2.90;;;2.70;;
16512;SDS011;8369;48.030;11.598;2023-05-07T06:50:53;3.43;;;2.87;;
16512;SDS011;8369;48.030;11.598;2023-05-07T06:53:20;4.70;;;3.10;;
16512;SDS011;8369;48.030;11.598;2023-05-07T06:55:47;5.30;;;3.40;;
16512;SDS011;8369;48.030;11.598;2023-05-07T06:58:13;3.30;;;3.00;;
16512;SDS011;8369;48.030;11.598;2023-05-07T07:00:39;4.70;;;3.20;;
16512;SDS011;8369;48.030;11.598;2023-05-07T07:03:07;4.53;;;3.13;;
16512;SDS011;8369;48.030;11.598;2023-05-07T07:05:33;4.10;;;3.30;;
16512;SDS011;8369;48.030;11.598;2023-05-07T07:08:05;4.07;;;3.37;;
16512;SDS011;8369;48.030;11.598;2023-05-07T07:10:31;5.30;;;3.27;;
16512;SDS011;8369;48.030;11.598;2023-05-07T07:12:56;3.27;;;2.80;;
16512;SDS011;8369;48.030;11.598;2023-05-07T07:15:23;3.38;;;3.03;;
16512;SDS011;8369;48.030;11.598;2023-05-07T07:17:50;3.47;;;3.00;;
16512;SDS011;8369;48.030;11.598;2023-05-07T07:20:16;3.93;;;3.00;;
16512;SDS011;8369;48.030;11.598;2023-05-07T07:22:42;4.53;;;3.40;;
16512;SDS011;8369;48.030;11.598;2023-05-07T07:25:08;4.72;;;3.20;;
16512;SDS011;8369;48.030;11.598;2023-05-07T07:27:36;3.47;;;3.17;;
16512;SDS011;8369;48.030;11.598;2023-05-07T07:30:02;5.27;;;2.87;;
16512;SDS011;8369;48.030;11.598;2023-05-07T07:32:28;3.67;;;3.13;;
16512;SDS011;8369;48.030;11.598;2023-05-07T07:34:54;3.40;;;3.10;;
16512;SDS011;8369;48.030;11.598;2023-05-07T07:37:21;3.70;;;2.93;;
16512;SDS011;8369;48.030;11.598;2023-05-07T07:39:47;5.72;;;3.10;;
16512;SDS011;8369;48.030;11.598;2023-05-07T07:42:13;5.10;;;3.45;;
16512;SDS011;8369;48.030;11.598;2023-05-07T07:44:40;4.30;;;3.03;;
16512;SDS011;8369;48.030;11.598;2023-05-07T07:47:06;4.25;;;3.15;;
16512;SDS011;8369;48.030;11.598;2023-05-07T07:49:31;4.70;;;2.95;;
16512;SDS011;8369;48.030;11.598;2023-05-07T07:51:57;3.22;;;2.83;;
16512;SDS011;8369;48.030;11.598;2023-05-07T07:54:24;3.45;;;2.90;;
16512;SDS011;8369;48.030;11.598;2023-05-07T07:56:51;3.63;;;3.13;;
16512;SDS011;8369;48.030;11.598;2023-05-07T07:59:17;3.50;;;3.10;;
16512;SDS011;8369;48.030;11.598;2023-05-07T08:01:44;3.30;;;3.00;;
16512;SDS011;8369;48.030;11.598;2023-05-07T08:04:10;3.20;;;2.78;;
16512;SDS011;8369;48.030;11.598;2023-05-07T08:06:36;4.88;;;2.90;;
16512;SDS011;8369;48.030;11.598;2023-05-07T08:09:03;3.10;;;2.85;;
16512;SDS011;8369;48.030;11.598;2023-05-07T08:11:28;5.32;;;2.90;;
16512;SDS011;8369;48.030;11.598;2023-05-07T08:13:55;2.85;;;2.65;;
16512;SDS011;8369;48.030;11.598;2023-05-07T08:16:21;3.20;;;2.90;;
16512;SDS011;8369;48.030;11.598;2023-05-07T08:18:49;8.23;;;2.60;;
16512;SDS011;8369;48.030;11.598;2023-05-07T08:21:15;3.05;;;2.83;;
16512;SDS011;8369;48.030;11.598;2023-05-07T08:23:41;3.03;;;2.70;;
16512;SDS011;8369;48.030;11.598;2023-05-07T08:26:07;3.03;;;2.63;;
16512;SDS011;8369;48.030;11.598;2023-05-07T08:28:34;3.22;;;2.58;;
16512;SDS011;8369;48.030;11.598;2023-05-07T08:31:04;2.80;;;2.50;;
16512;SDS011;8369;48.030;11.598;2023-05-07T08:33:30;3.95;;;2.50;;
16512;SDS011;8369;48.030;11.598;2023-05-07T08:35:56;2.97;;;2.35;;
16512;SDS011;8369;48.030;11.598;2023-05-07T08:38:23;3.35;;;2.72;;
16512;SDS011;8369;48.030;11.598;2023-05-07T08:40:49;3.55;;;2.50;;
16512;SDS011;8369;48.030;11.598;2023-05-07T08:43:15;5.43;;;2.40;;
16512;SDS011;8369;48.030;11.598;2023-05-07T08:45:44;2.75;;;2.45;;
16512;SDS011;8369;48.030;11.598;2023-05-07T08:48:15;3.72;;;2.78;;
16512;SDS011;8369;48.030;11.598;2023-05-07T08:50:42;4.30;;;2.88;;
16512;SDS011;8369;48.030;11.598;2023-05-07T08:53:08;3.03;;;2.72;;
16512;SDS011;8369;48.030;11.598;2023-05-07T08:55:35;3.60;;;2.85;;
16512;SDS011;8369;48.030;11.598;2023-05-07T08:58:01;3.25;;;2.95;;
16512;SDS011;8369;48.030;11.598;2023-05-07T09:00:27;3.35;;;2.40;;
16512;SDS011;8369;48.030;11.598;2023-05-07T09:02:53;3.88;;;2.78;;
16512;SDS011;8369;48.030;11.598;2023-05-07T09:05:25;3.10;;;2.78;;
16512;SDS011;8369;48.030;11.598;2023-05-07T09:07:51;3.05;;;2.75;;
16512;SDS011;8369;48.030;11.598;2023-05-07T09:10:19;2.95;;;2.50;;
16512;SDS011;8369;48.030;11.598;2023-05-07T09:12:48;3.30;;;2.70;;
16512;SDS011;8369;48.030;11.598;2023-05-07T09:15:15;3.50;;;2.80;;
16512;SDS011;8369;48.030;11.598;2023-05-07T09:17:41;2.65;;;2.42;;
16512;SDS011;8369;48.030;11.598;2023-05-07T09:20:08;3.65;;;2.22;;
16512;SDS011;8369;48.030;11.598;2023-05-07T09:22:38;11.23;;;3.00;;
16512;SDS011;8369;48.030;11.598;2023-05-07T09:25:05;3.65;;;2.70;;
16512;SDS011;8369;48.030;11.598;2023-05-07T09:27:32;2.67;;;2.47;;
16512;SDS011;8369;48.030;11.598;2023-05-07T09:29:58;3.28;;;2.63;;
16512;SDS011;8369;48.030;11.598;2023-05-07T09:32:26;5.70;;;3.00;;
16512;SDS011;8369;48.030;11.598;2023-05-07T09:34:52;2.92;;;2.63;;
16512;SDS011;8369;48.030;11.598;2023-05-07T09:37:18;4.50;;;2.60;;
16512;SDS011;8369;48.030;11.598;2023-05-07T09:39:45;4.60;;;2.30;;
16512;SDS011;8369;48.030;11.598;2023-05-07T09:42:14;3.00;;;2.33;;
16512;SDS011;8369;48.030;11.598;2023-05-07T09:44:41;3.53;;;2.28;;
16512;SDS011;8369;48.030;11.598;2023-05-07T09:47:10;4.00;;;2.75;;
16512;SDS011;8369;48.030;11.598;2023-05-07T09:49:39;4.43;;;2.75;;
16512;SDS011;8369;48.030;11.598;2023-05-07T09:52:07;4.20;;;2.83;;
16512;SDS011;8369;48.030;11.598;2023-05-07T09:54:35;3.10;;;2.42;;
16512;SDS011;8369;48.030;11.598;2023-05-07T09:57:03;2.83;;;2.45;;
16512;SDS011;8369;48.030;11.598;2023-05-07T09:59:33;2.80;;;2.50;;
16512;SDS011;8369;48.030;11.598;2023-05-07T10:02:02;3.45;;;2.67;;
16512;SDS011;8369;48.030;11.598;2023-05-07T10:04:29;4.15;;;2.90;;
16512;SDS011;8369;48.030;11.598;2023-05-07T10:06:57;3.33;;;2.70;;
16512;SDS011;8369;48.030;11.598;2023-05-07T10:09:25;3.00;;;2.80;;
16512;SDS011;8369;48.030;11.598;2023-05-07T10:11:51;2.90;;;2.67;;
16512;SDS011;8369;48.030;11.598;2023-05-07T10:14:19;3.03;;;2.55;;
16512;SDS011;8369;48.030;11.598;2023-05-07T10:16:46;3.90;;;2.60;;
16512;SDS011;8369;48.030;11.598;2023-05-07T10:19:14;2.58;;;2.38;;
16512;SDS011;8369;48.030;11.598;2023-05-07T10:21:53;3.58;;;2.33;;
16512;SDS011;8369;48.030;11.598;2023-05-07T10:24:26;5.47;;;3.08;;
16512;SDS011;8369;48.030;11.598;2023-05-07T10:26:54;2.78;;;2.42;;
16512;SDS011;8369;48.030;11.598;2023-05-07T10:35:39;2.63;;;1.92;;
16512;SDS011;8369;48.030;11.598;2023-05-07T10:38:08;3.85;;;2.55;;
16512;SDS011;8369;48.030;11.598;2023-05-07T10:40:34;3.30;;;2.42;;
16512;SDS011;8369;48.030;11.598;2023-05-07T10:43:02;2.67;;;2.45;;
16512;SDS011;8369;48.030;11.598;2023-05-07T10:45:31;4.45;;;2.10;;
16512;SDS011;8369;48.030;11.598;2023-05-07T10:50:37;2.30;;;2.10;;
16512;SDS011;8369;48.030;11.598;2023-05-07T10:55:46;2.35;;;2.10;;
16512;SDS011;8369;48.030;11.598;2023-05-07T10:58:23;3.58;;;2.10;;
16512;SDS011;8369;48.030;11.598;2023-05-07T11:00:57;3.28;;;2.03;;
16512;SDS011;8369;48.030;11.598;2023-05-07T11:03:24;2.60;;;2.33;;
16512;SDS011;8369;48.030;11.598;2023-05-07T11:11:18;3.03;;;2.22;;
16512;SDS011;8369;48.030;11.598;2023-05-07T11:13:46;3.88;;;2.42;;
16512;SDS011;8369;48.030;11.598;2023-05-07T11:16:23;2.63;;;2.40;;
16512;SDS011;8369;48.030;11.598;2023-05-07T11:18:54;4.63;;;2.53;;
16512;SDS011;8369;48.030;11.598;2023-05-07T11:21:33;2.47;;;2.25;;
16512;SDS011;8369;48.030;11.598;2023-05-07T11:24:04;2.50;;;2.30;;
16512;SDS011;8369;48.030;11.598;2023-05-07T11:26:41;4.97;;;2.45;;
16512;SDS011;8369;48.030;11.598;2023-05-07T11:29:14;3.03;;;2.50;;
16512;SDS011;8369;48.030;11.598;2023-05-07T11:31:54;4.05;;;2.58;;
16512;SDS011;8369;48.030;11.598;2023-05-07T11:34:21;3.45;;;2.42;;
16512;SDS011;8369;48.030;11.598;2023-05-07T11:36:48;3.08;;;2.47;;
16512;SDS011;8369;48.030;11.598;2023-05-07T11:39:27;2.85;;;2.38;;
16512;SDS011;8369;48.030;11.598;2023-05-07T11:41:55;2.30;;;2.10;;
16512;SDS011;8369;48.030;11.598;2023-05-07T11:44:21;2.90;;;2.60;;
16512;SDS011;8369;48.030;11.598;2023-05-07T11:46:48;4.03;;;2.55;;
16512;SDS011;8369;48.030;11.598;2023-05-07T11:49:14;10.85;;;2.80;;
16512;SDS011;8369;48.030;11.598;2023-05-07T11:51:42;2.72;;;2.47;;
16512;SDS011;8369;48.030;11.598;2023-05-07T11:54:08;3.75;;;2.40;;
16512;SDS011;8369;48.030;11.598;2023-05-07T11:56:36;3.53;;;3.22;;
16512;SDS011;8369;48.030;11.598;2023-05-07T11:59:04;3.95;;;2.83;;
16512;SDS011;8369;48.030;11.598;2023-05-07T12:01:30;4.38;;;3.45;;
16512;SDS011;8369;48.030;11.598;2023-05-07T12:03:56;6.20;;;2.80;;
16512;SDS011;8369;48.030;11.598;2023-05-07T12:06:22;2.85;;;2.50;;
16512;SDS011;8369;48.030;11.598;2023-05-07T12:08:48;3.00;;;2.70;;
16512;SDS011;8369;48.030;11.598;2023-05-07T12:11:21;2.88;;;2.58;;
16512;SDS011;8369;48.030;11.598;2023-05-07T12:13:49;3.38;;;2.75;;
16512;SDS011;8369;48.030;11.598;2023-05-07T12:16:16;2.80;;;2.58;;
16512;SDS011;8369;48.030;11.598;2023-05-07T12:18:43;3.65;;;2.60;;
16512;SDS011;8369;48.030;11.598;2023-05-07T12:21:10;4.93;;;2.85;;
16512;SDS011;8369;48.030;11.598;2023-05-07T12:23:37;4.53;;;2.72;;
16512;SDS011;8369;48.030;11.598;2023-05-07T12:26:03;3.95;;;2.60;;
16512;SDS011;8369;48.030;11.598;2023-05-07T12:28:29;4.47;;;2.97;;
16512;SDS011;8369;48.030;11.598;2023-05-07T12:30:57;3.55;;;2.95;;
16512;SDS011;8369;48.030;11.598;2023-05-07T12:33:24;2.92;;;2.70;;
16512;SDS011;8369;48.030;11.598;2023-05-07T12:35:50;3.17;;;2.85;;
16512;SDS011;8369;48.030;11.598;2023-05-07T12:38:19;3.90;;;2.95;;
16512;SDS011;8369;48.030;11.598;2023-05-07T12:40:46;4.18;;;3.05;;
16512;SDS011;8369;48.030;11.598;2023-05-07T12:43:26;3.50;;;3.20;;
16512;SDS011;8369;48.030;11.598;2023-05-07T12:45:54;5.13;;;3.15;;
16512;SDS011;8369;48.030;11.598;2023-05-07T12:48:23;3.08;;;2.78;;
16512;SDS011;8369;48.030;11.598;2023-05-07T12:50:54;3.72;;;2.83;;
16512;SDS011;8369;48.030;11.598;2023-05-07T12:53:22;3.30;;;3.00;;
16512;SDS011;8369;48.030;11.598;2023-05-07T12:55:51;3.17;;;2.92;;
16512;SDS011;8369;48.030;11.598;2023-05-07T12:58:24;3.25;;;2.95;;
16512;SDS011;8369;48.030;11.598;2023-05-07T13:00:51;3.70;;;3.40;;
16512;SDS011;8369;48.030;11.598;2023-05-07T13:03:29;4.78;;;3.40;;
16512;SDS011;8369;48.030;11.598;2023-05-07T13:06:03;4.13;;;3.30;;
16512;SDS011;8369;48.030;11.598;2023-05-07T13:08:31;4.22;;;2.97;;
16512;SDS011;8369;48.030;11.598;2023-05-07T13:10:59;3.65;;;3.35;;
16512;SDS011;8369;48.030;11.598;2023-05-07T13:13:31;3.25;;;2.95;;
16512;SDS011;8369;48.030;11.598;2023-05-07T13:15:59;4.63;;;3.13;;
16512;SDS011;8369;48.030;11.598;2023-05-07T13:18:29;3.80;;;3.03;;
16512;SDS011;8369;48.030;11.598;2023-05-07T13:20:56;4.72;;;3.47;;
16512;SDS011;8369;48.030;11.598;2023-05-07T13:23:22;3.53;;;3.22;;
16512;SDS011;8369;48.030;11.598;2023-05-07T13:25:48;3.92;;;3.10;;
16512;SDS011;8369;48.030;11.598;2023-05-07T13:28:14;3.55;;;3.17;;
16512;SDS011;8369;48.030;11.598;2023-05-07T13:30:40;3.78;;;3.20;;
16512;SDS011;8369;48.030;11.598;2023-05-07T13:33:07;4.28;;;3.40;;
16512;SDS011;8369;48.030;11.598;2023-05-07T13:35:33;3.72;;;3.33;;
16512;SDS011;8369;48.030;11.598;2023-05-07T13:37:58;3.63;;;3.33;;
16512;SDS011;8369;48.030;11.598;2023-05-07T13:40:24;3.38;;;2.90;;
16512;SDS011;8369;48.030;11.598;2023-05-07T13:42:51;3.58;;;3.08;;
16512;SDS011;8369;48.030;11.598;2023-05-07T13:45:20;3.72;;;3.30;;
16512;SDS011;8369;48.030;11.598;2023-05-07T13:47:46;3.38;;;3.08;;
16512;SDS011;8369;48.030;11.598;2023-05-07T13:50:14;3.28;;;2.97;;
16512;SDS011;8369;48.030;11.598;2023-05-07T13:52:46;3.88;;;3.28;;
16512;SDS011;8369;48.030;11.598;2023-05-07T13:55:20;4.30;;;3.25;;
16512;SDS011;8369;48.030;11.598;2023-05-07T13:57:53;3.58;;;3.28;;
16512;SDS011;8369;48.030;11.598;2023-05-07T14:00:21;3.55;;;3.00;;
16512;SDS011;8369;48.030;11.598;2023-05-07T14:02:47;4.30;;;3.10;;
16512;SDS011;8369;48.030;11.598;2023-05-07T14:05:13;2.97;;;2.78;;
16512;SDS011;8369;48.030;11.598;2023-05-07T14:07:39;6.40;;;3.22;;
16512;SDS011;8369;48.030;11.598;2023-05-07T14:10:05;4.75;;;3.13;;
16512;SDS011;8369;48.030;11.598;2023-05-07T14:12:32;3.30;;;3.00;;
16512;SDS011;8369;48.030;11.598;2023-05-07T14:14:58;3.38;;;3.00;;
16512;SDS011;8369;48.030;11.598;2023-05-07T14:17:25;4.55;;;3.00;;
16512;SDS011;8369;48.030;11.598;2023-05-07T14:19:52;3.15;;;2.85;;
16512;SDS011;8369;48.030;11.598;2023-05-07T14:22:22;5.40;;;2.83;;
16512;SDS011;8369;48.030;11.598;2023-05-07T14:24:48;5.30;;;3.17;;
16512;SDS011;8369;48.030;11.598;2023-05-07T14:27:14;8.75;;;3.38;;
16512;SDS011;8369;48.030;11.598;2023-05-07T14:29:41;3.30;;;3.00;;
16512;SDS011;8369;48.030;11.598;2023-05-07T14:32:07;3.22;;;2.90;;
16512;SDS011;8369;48.030;11.598;2023-05-07T14:34:33;4.60;;;2.90;;
16512;SDS011;8369;48.030;11.598;2023-05-07T14:37:00;3.00;;;2.70;;
16512;SDS011;8369;48.030;11.598;2023-05-07T14:39:26;4.00;;;2.85;;
16512;SDS011;8369;48.030;11.598;2023-05-07T14:41:52;3.08;;;2.78;;
16512;SDS011;8369;48.030;11.598;2023-05-07T14:44:20;2.88;;;2.67;;
16512;SDS011;8369;48.030;11.598;2023-05-07T14:46:46;4.00;;;2.78;;
16512;SDS011;8369;48.030;11.598;2023-05-07T14:49:14;3.45;;;2.50;;
16512;SDS011;8369;48.030;11.598;2023-05-07T14:51:44;2.85;;;2.65;;
16512;SDS011;8369;48.030;11.598;2023-05-07T14:54:10;3.53;;;2.70;;
16512;SDS011;8369;48.030;11.598;2023-05-07T14:56:37;2.80;;;2.60;;
16512;SDS011;8369;48.030;11.598;2023-05-07T14:59:03;2.75;;;2.55;;
16512;SDS011;8369;48.030;11.598;2023-05-07T15:01:29;4.10;;;2.97;;
16512;SDS011;8369;48.030;11.598;2023-05-07T15:03:56;3.20;;;2.90;;